createdAt,value
2022-08-25T00:01:32.482Z,13.45
2022-08-25T00:04:02.271Z,13.30
2022-08-25T00:06:31.481Z,12.57
2022-08-25T00:09:00.079Z,13.40
2022-08-25T00:11:30.461Z,12.85
2022-08-25T00:14:06.160Z,12.85
2022-08-25T00:16:33.810Z,12.88
2022-08-25T00:19:06.357Z,12.90
2022-08-25T00:21:34.491Z,12.95
2022-08-25T00:24:02.930Z,12.80
2022-08-25T00:26:31.376Z,12.55
2022-08-25T00:29:02.016Z,12.45
2022-08-25T00:31:38.223Z,11.45
2022-08-25T00:34:14.938Z,12.43
2022-08-25T00:36:42.969Z,12.38
2022-08-25T00:39:11.229Z,12.00
2022-08-25T00:41:42.891Z,13.02
2022-08-25T00:44:13.349Z,13.23
2022-08-25T00:46:45.421Z,13.15
2022-08-25T00:49:47.848Z,13.50
2022-08-25T00:52:25.817Z,13.35
2022-08-25T00:55:07.780Z,13.57
2022-08-25T00:57:57.686Z,13.15
2022-08-25T01:00:38.336Z,12.77
2022-08-25T01:03:07.120Z,12.75
2022-08-25T01:05:35.464Z,14.50
2022-08-25T01:08:06.897Z,15.85
2022-08-25T01:10:37.416Z,14.77
2022-08-25T01:13:16.478Z,14.23
2022-08-25T01:15:49.374Z,16.30
2022-08-25T01:18:17.001Z,17.88
2022-08-25T01:20:46.871Z,17.55
2022-08-25T01:23:14.372Z,17.60
2022-08-25T01:25:51.721Z,17.27
2022-08-25T01:28:20.568Z,18.98
2022-08-25T01:30:49.010Z,17.70
2022-08-25T01:33:19.546Z,17.08
2022-08-25T01:35:48.288Z,16.50
2022-08-25T01:38:16.219Z,14.93
2022-08-25T01:40:44.079Z,14.57
2022-08-25T01:43:11.873Z,14.15
2022-08-25T01:45:41.952Z,17.33
2022-08-25T01:48:11.109Z,18.35
2022-08-25T01:50:40.450Z,18.52
2022-08-25T01:53:27.082Z,18.13
2022-08-25T01:56:02.679Z,18.05
2022-08-25T01:58:34.426Z,18.63
2022-08-25T02:01:05.855Z,19.42
2022-08-25T02:03:38.359Z,17.25
2022-08-25T02:06:16.606Z,18.13
2022-08-25T02:08:44.558Z,15.93
2022-08-25T02:11:13.964Z,15.63
2022-08-25T02:13:42.691Z,16.38
2022-08-25T02:16:15.212Z,16.30
2022-08-25T02:18:42.837Z,16.33
2022-08-25T02:21:11.547Z,18.02
2022-08-25T02:23:39.066Z,16.40
2022-08-25T02:26:06.578Z,18.88
2022-08-25T02:28:34.634Z,18.27
2022-08-25T02:31:02.800Z,19.35
2022-08-25T02:33:30.430Z,18.33
2022-08-25T02:36:02.597Z,18.48
2022-08-25T02:38:30.279Z,17.70
2022-08-25T02:40:59.967Z,17.48
2022-08-25T02:43:28.425Z,16.38
2022-08-25T02:45:56.577Z,19.73
2022-08-25T02:48:24.619Z,18.20
2022-08-25T02:50:53.145Z,17.05
2022-08-25T02:53:21.764Z,16.70
2022-08-25T02:55:49.364Z,15.15
2022-08-25T02:58:16.967Z,15.70
2022-08-25T03:00:46.178Z,14.95
2022-08-25T03:03:14.467Z,15.48
2022-08-25T03:05:42.173Z,15.13
2022-08-25T03:08:12.049Z,15.70
2022-08-25T03:10:39.719Z,15.63
2022-08-25T03:13:07.301Z,15.38
2022-08-25T03:15:37.952Z,15.43
2022-08-25T03:18:08.619Z,15.73
2022-08-25T03:20:36.325Z,17.88
2022-08-25T03:23:05.749Z,16.45
2022-08-25T03:25:52.315Z,17.40
2022-08-25T03:28:20.575Z,17.73
2022-08-25T03:30:56.105Z,20.83
2022-08-25T03:33:23.898Z,20.80
2022-08-25T03:35:51.369Z,18.58
2022-08-25T03:38:18.877Z,19.30
2022-08-25T03:40:46.389Z,17.10
2022-08-25T03:43:13.935Z,19.52
2022-08-25T03:45:43.462Z,17.90
2022-08-25T03:48:11.125Z,17.33
2022-08-25T03:50:50.719Z,19.35
2022-08-25T03:53:20.719Z,18.38
2022-08-25T03:55:48.303Z,19.13
2022-08-25T03:58:15.957Z,18.20
2022-08-25T04:00:43.462Z,18.33
2022-08-25T04:03:11.406Z,20.17
2022-08-25T04:05:40.069Z,20.30
2022-08-25T04:08:08.169Z,18.40
2022-08-25T04:10:37.169Z,19.40
2022-08-25T04:13:06.389Z,18.25
2022-08-25T04:15:34.090Z,19.15
2022-08-25T04:18:01.723Z,18.13
2022-08-25T04:20:29.360Z,17.73
2022-08-25T04:23:00.714Z,19.90
2022-08-25T04:25:28.335Z,15.82
2022-08-25T04:27:55.877Z,21.50
2022-08-25T04:30:23.759Z,18.92
2022-08-25T04:32:51.629Z,19.83
2022-08-25T04:35:19.180Z,17.80
2022-08-25T04:37:48.891Z,19.85
2022-08-25T04:40:16.607Z,18.77
2022-08-25T04:42:45.165Z,21.27
2022-08-25T04:45:15.799Z,18.80
2022-08-25T04:47:43.245Z,19.27
2022-08-25T04:50:11.299Z,18.42
2022-08-25T04:52:38.824Z,20.67
2022-08-25T04:55:06.675Z,19.33
2022-08-25T04:57:34.468Z,18.40
2022-08-25T05:00:02.597Z,18.00
2022-08-25T05:02:30.028Z,17.15
2022-08-25T05:04:57.759Z,16.48
2022-08-25T05:07:25.245Z,15.43
2022-08-25T05:09:52.718Z,19.13
2022-08-25T05:12:20.998Z,15.27
2022-08-25T05:14:48.695Z,16.33
2022-08-25T05:17:16.197Z,18.67
2022-08-25T05:19:44.040Z,17.17
2022-08-25T05:22:11.596Z,15.98
2022-08-25T05:24:39.139Z,16.52
2022-08-25T05:27:06.681Z,17.02
2022-08-25T05:29:35.785Z,15.85
2022-08-25T05:32:03.885Z,15.90
2022-08-25T05:34:31.468Z,15.48
2022-08-25T05:37:00.331Z,16.25
2022-08-25T05:39:27.919Z,15.73
2022-08-25T05:41:55.474Z,16.63
2022-08-25T05:44:22.970Z,15.05
2022-08-25T05:46:51.455Z,16.88
2022-08-25T05:49:19.257Z,15.85
2022-08-25T05:51:46.798Z,15.10
2022-08-25T05:54:14.359Z,16.75
2022-08-25T05:56:41.811Z,16.30
2022-08-25T05:59:09.830Z,17.10
2022-08-25T06:01:56.020Z,16.02
2022-08-25T06:04:24.129Z,17.90
2022-08-25T06:06:54.081Z,15.82
2022-08-25T06:09:23.239Z,16.90
2022-08-25T06:11:54.696Z,19.23
2022-08-25T06:14:24.120Z,15.93
2022-08-25T06:16:52.490Z,17.60
2022-08-25T06:19:21.360Z,17.05
2022-08-25T06:21:49.431Z,18.02
2022-08-25T06:24:17.259Z,16.92
2022-08-25T06:26:44.679Z,17.77
2022-08-25T06:29:14.289Z,17.75
2022-08-25T06:31:42.959Z,16.70
2022-08-25T06:34:11.483Z,17.25
2022-08-25T06:36:39.400Z,16.02
2022-08-25T06:39:07.376Z,17.15
2022-08-25T06:41:37.569Z,16.33
2022-08-25T06:44:06.079Z,16.33
2022-08-25T06:46:36.319Z,14.65
2022-08-25T06:49:05.741Z,15.68
2022-08-25T06:51:36.338Z,15.73
2022-08-25T06:54:07.018Z,14.70
2022-08-25T06:56:34.670Z,14.45
2022-08-25T06:59:06.382Z,13.10
2022-08-25T07:01:34.826Z,13.90
2022-08-25T07:04:10.282Z,14.00
2022-08-25T07:06:40.580Z,14.68
2022-08-25T07:09:12.666Z,12.85
2022-08-25T07:11:44.199Z,14.35
2022-08-25T07:14:14.016Z,13.73
2022-08-25T07:16:42.462Z,13.38
2022-08-25T07:19:16.320Z,14.32
2022-08-25T07:21:47.033Z,15.55
2022-08-25T07:24:15.329Z,14.80
2022-08-25T07:26:43.800Z,14.93
2022-08-25T07:29:18.349Z,16.17
2022-08-25T07:31:47.669Z,16.42
2022-08-25T07:34:34.017Z,16.60
2022-08-25T07:37:05.185Z,17.08
2022-08-25T07:39:34.199Z,17.40
2022-08-25T07:42:01.771Z,16.80
2022-08-25T07:44:29.589Z,18.17
2022-08-25T07:46:57.564Z,16.13
2022-08-25T07:49:26.958Z,17.63
2022-08-25T07:52:06.454Z,16.65
2022-08-25T07:54:37.884Z,18.77
2022-08-25T07:57:08.601Z,18.88
2022-08-25T07:59:42.987Z,18.23
2022-08-25T08:02:18.141Z,18.75
2022-08-25T08:04:52.030Z,18.92
2022-08-25T08:07:22.797Z,19.55
2022-08-25T08:10:05.251Z,20.02
2022-08-25T08:12:39.742Z,19.73
2022-08-25T08:15:10.403Z,19.08
2022-08-25T08:17:39.826Z,19.48
2022-08-25T08:20:09.475Z,18.90
2022-08-25T08:22:39.268Z,18.48
2022-08-25T08:25:08.638Z,18.88
2022-08-25T08:27:39.589Z,19.13
2022-08-25T08:30:07.630Z,17.67
2022-08-25T08:33:05.871Z,18.95
2022-08-25T08:35:22.885Z,19.42
2022-08-25T08:37:52.539Z,18.90
2022-08-25T08:40:22.420Z,18.00
2022-08-25T08:43:18.524Z,18.83
2022-08-25T08:45:53.774Z,20.83
2022-08-25T08:48:45.424Z,17.77
2022-08-25T08:51:26.153Z,19.67
2022-08-25T08:54:06.665Z,17.85
2022-08-25T08:56:48.388Z,18.23
2022-08-25T08:59:29.979Z,18.88
2022-08-25T09:02:02.052Z,18.58
2022-08-25T09:04:35.358Z,17.90
2022-08-25T09:09:36.293Z,18.25
2022-08-25T09:12:28.619Z,17.48
2022-08-25T09:15:23.737Z,16.45
2022-08-25T09:18:21.179Z,16.38
2022-08-25T09:20:59.764Z,15.13
2022-08-25T09:23:52.519Z,14.98
2022-08-25T09:26:20.118Z,15.27
2022-08-25T09:29:16.395Z,15.57
2022-08-25T09:31:45.479Z,16.60
2022-08-25T09:34:19.049Z,15.60
2022-08-25T09:36:48.825Z,15.85
2022-08-25T09:39:17.120Z,16.67
2022-08-25T09:41:51.532Z,15.13
2022-08-25T09:44:28.131Z,14.00
2022-08-25T09:47:02.154Z,12.73
2022-08-25T09:49:42.763Z,14.95
2022-08-25T09:52:28.409Z,13.88
2022-08-25T09:54:57.978Z,14.00
2022-08-25T09:57:52.728Z,13.25
2022-08-25T10:00:23.614Z,13.85
2022-08-25T10:03:22.817Z,12.93
2022-08-25T10:05:56.300Z,12.90
2022-08-25T10:08:32.448Z,14.10
2022-08-25T10:11:02.825Z,13.77
2022-08-25T10:13:46.982Z,12.85
2022-08-25T10:16:36.299Z,14.45
2022-08-25T10:19:22.240Z,13.43
2022-08-25T10:22:32.349Z,13.50
2022-08-25T10:25:00.587Z,12.57
2022-08-25T10:27:39.348Z,12.18
2022-08-25T10:30:24.328Z,12.77
2022-08-25T10:33:00.890Z,12.02
2022-08-25T10:35:45.689Z,11.38
2022-08-25T10:38:35.499Z,12.13
2022-08-25T10:41:21.529Z,12.25
2022-08-25T10:44:33.666Z,12.50
2022-08-25T10:47:34.938Z,11.50
2022-08-25T10:50:10.714Z,11.43
2022-08-25T10:53:06.556Z,11.80
2022-08-25T10:55:48.997Z,11.70
2022-08-25T10:58:47.345Z,11.43
2022-08-25T11:01:28.827Z,10.55
2022-08-25T11:04:07.634Z,12.10
2022-08-25T11:06:42.519Z,10.23
2022-08-25T11:09:16.183Z,9.73
2022-08-25T11:11:49.517Z,10.27
2022-08-25T11:14:35.189Z,9.48
2022-08-25T11:17:20.369Z,9.95
2022-08-25T11:19:51.509Z,9.68
2022-08-25T11:22:27.710Z,10.57
2022-08-25T11:25:18.634Z,9.82
2022-08-25T11:28:23.356Z,8.75
2022-08-25T11:30:53.355Z,9.82
2022-08-25T11:33:25.399Z,9.80
2022-08-25T11:35:59.317Z,9.18
2022-08-25T11:38:56.762Z,8.35
2022-08-25T11:41:57.072Z,9.95
2022-08-25T11:45:02.772Z,9.35
2022-08-25T11:47:31.599Z,8.57
2022-08-25T11:50:31.807Z,9.63
2022-08-25T11:53:11.607Z,9.18
2022-08-25T11:55:52.400Z,9.45
2022-08-25T11:58:31.896Z,8.73
2022-08-25T12:01:02.217Z,7.80
2022-08-25T12:03:32.492Z,9.05
2022-08-25T12:06:25.159Z,8.90
2022-08-25T12:09:01.465Z,8.30
2022-08-25T12:11:38.119Z,7.60
2022-08-25T12:14:16.404Z,8.70
2022-08-25T12:17:05.513Z,8.95
2022-08-25T12:19:36.347Z,9.70
2022-08-25T12:22:04.161Z,8.63
2022-08-25T12:24:48.186Z,8.30
2022-08-25T12:27:19.572Z,8.88
2022-08-25T12:29:58.978Z,8.25
2022-08-25T12:32:38.587Z,8.30
2022-08-25T12:35:24.229Z,8.50
2022-08-25T12:37:59.099Z,7.75
2022-08-25T12:40:35.402Z,8.77
2022-08-25T12:43:37.625Z,8.02
2022-08-25T12:46:25.889Z,9.02
2022-08-25T12:49:12.039Z,8.05
2022-08-25T12:52:20.559Z,8.40
2022-08-25T12:54:54.728Z,8.30
2022-08-25T12:57:24.980Z,8.10
2022-08-25T12:59:59.869Z,9.27
2022-08-25T13:02:53.530Z,8.27
2022-08-25T13:05:42.009Z,8.60
2022-08-25T13:08:33.683Z,7.30
2022-08-25T13:11:49.175Z,7.82
2022-08-25T13:14:26.990Z,8.63
2022-08-25T13:16:58.303Z,9.40
2022-08-25T13:19:28.095Z,8.55
2022-08-25T13:22:16.399Z,8.45
2022-08-25T13:24:47.532Z,9.18
2022-08-25T13:29:59.158Z,8.75
2022-08-25T13:32:32.557Z,8.45
2022-08-25T13:35:21.439Z,8.05
2022-08-25T13:37:50.876Z,8.00
2022-08-25T13:40:28.035Z,8.10
2022-08-25T13:43:01.254Z,8.25
2022-08-25T13:45:41.317Z,8.02
2022-08-25T13:48:22.754Z,8.35
2022-08-25T13:50:54.510Z,8.40
2022-08-25T13:53:26.000Z,8.15
2022-08-25T13:55:58.391Z,7.50
2022-08-25T13:58:38.754Z,7.90
2022-08-25T14:01:22.903Z,7.47
2022-08-25T14:04:50.853Z,9.18
2022-08-25T14:07:26.255Z,8.48
2022-08-25T14:10:08.839Z,7.78
2022-08-25T14:12:47.937Z,9.10
2022-08-25T14:15:17.252Z,8.23
2022-08-25T14:17:49.197Z,8.32
2022-08-25T14:20:25.777Z,8.43
2022-08-25T14:22:58.257Z,8.15
2022-08-25T14:25:28.359Z,7.75
2022-08-25T14:28:08.084Z,8.80
2022-08-25T14:30:39.991Z,8.65
2022-08-25T14:33:12.451Z,7.50
2022-08-25T14:35:42.131Z,9.00
2022-08-25T14:38:11.601Z,8.85
2022-08-25T14:40:39.962Z,9.10
2022-08-25T14:43:09.654Z,8.98
2022-08-25T14:45:41.173Z,8.13
2022-08-25T14:48:14.441Z,8.30
2022-08-25T14:50:42.336Z,8.15
2022-08-25T14:53:12.025Z,8.93
2022-08-25T14:55:39.940Z,7.93
2022-08-25T14:58:08.227Z,8.02
2022-08-25T15:00:44.645Z,8.05
2022-08-25T15:03:15.419Z,7.40
2022-08-25T15:05:43.020Z,8.52
2022-08-25T15:08:33.105Z,8.50
2022-08-25T15:11:00.998Z,8.82
2022-08-25T15:13:28.571Z,8.90
2022-08-25T15:15:58.047Z,7.90
2022-08-25T15:18:26.077Z,8.23
2022-08-25T15:20:53.555Z,9.00
2022-08-25T15:23:21.139Z,8.68
2022-08-25T15:25:52.661Z,7.88
2022-08-25T15:28:22.199Z,9.02
2022-08-25T15:30:51.030Z,8.38
2022-08-25T15:33:18.876Z,10.02
2022-08-25T15:35:46.562Z,8.98
2022-08-25T15:38:17.549Z,8.10
2022-08-25T15:40:44.999Z,8.48
2022-08-25T15:43:14.250Z,8.23
2022-08-25T15:45:41.759Z,8.48
2022-08-25T15:48:09.835Z,8.60
2022-08-25T15:50:38.571Z,8.73
2022-08-25T15:53:10.382Z,9.45
2022-08-25T15:55:40.509Z,9.43
2022-08-25T15:58:08.813Z,10.23
2022-08-25T16:00:37.826Z,8.55
2022-08-25T16:03:07.914Z,9.20
2022-08-25T16:05:37.388Z,9.52
2022-08-25T16:08:05.767Z,8.77
2022-08-25T16:10:39.307Z,9.30
2022-08-25T16:13:09.791Z,9.50
2022-08-25T16:15:39.077Z,8.82
2022-08-25T16:18:07.978Z,9.98
2022-08-25T16:20:36.346Z,9.13
2022-08-25T16:23:04.599Z,9.90
2022-08-25T16:25:32.767Z,9.93
2022-08-25T16:28:04.162Z,9.85
2022-08-25T16:30:31.648Z,9.50
2022-08-25T16:32:59.238Z,9.65
2022-08-25T16:35:28.618Z,10.85
2022-08-25T16:37:57.107Z,10.48
2022-08-25T16:40:26.595Z,10.18
2022-08-25T16:42:55.125Z,9.48
2022-08-25T16:45:22.879Z,10.88
2022-08-25T16:47:50.716Z,10.45
2022-08-25T16:50:18.221Z,10.65
2022-08-25T16:53:04.217Z,10.30
2022-08-25T16:55:39.442Z,10.10
2022-08-25T16:58:08.116Z,10.88
2022-08-25T17:00:37.890Z,10.85
2022-08-25T17:03:06.609Z,10.70
2022-08-25T17:05:41.639Z,10.48
2022-08-25T17:08:27.928Z,11.10
2022-08-25T17:11:17.738Z,11.35
2022-08-25T17:13:49.702Z,11.98
2022-08-25T17:16:21.402Z,11.55
2022-08-25T17:18:49.409Z,11.02
2022-08-25T17:21:24.357Z,9.88
2022-08-25T17:23:54.539Z,9.95
2022-08-25T17:26:27.709Z,12.43
2022-08-25T17:29:01.070Z,10.93
2022-08-25T17:31:29.985Z,11.75
2022-08-25T17:33:59.008Z,11.57
2022-08-25T17:36:27.526Z,11.65
2022-08-25T17:38:57.052Z,11.77
2022-08-25T17:41:25.142Z,12.10
2022-08-25T17:43:52.665Z,12.45
2022-08-25T17:46:21.776Z,12.45
2022-08-25T17:48:49.448Z,12.25
2022-08-25T17:51:17.182Z,12.23
2022-08-25T17:53:44.941Z,13.02
2022-08-25T17:56:18.660Z,12.30
2022-08-25T17:58:47.517Z,13.23
2022-08-25T18:01:18.454Z,12.00
2022-08-25T18:03:46.806Z,13.25
2022-08-25T18:06:16.050Z,14.88
2022-08-25T18:08:44.924Z,14.27
2022-08-25T18:11:20.446Z,14.25
2022-08-25T18:13:48.066Z,15.15
2022-08-25T18:16:18.741Z,15.05
2022-08-25T18:18:46.258Z,15.98
2022-08-25T18:21:16.847Z,15.55
2022-08-25T18:23:44.605Z,15.82
2022-08-25T18:26:13.989Z,15.82
2022-08-25T18:28:43.887Z,15.20
2022-08-25T18:31:13.219Z,15.98
2022-08-25T18:33:44.591Z,16.42
2022-08-25T18:36:13.660Z,16.92
2022-08-25T18:39:00.877Z,17.02
2022-08-25T18:41:35.189Z,16.67
2022-08-25T18:44:03.519Z,18.35
2022-08-25T18:46:31.159Z,17.15
2022-08-25T18:49:00.509Z,17.63
2022-08-25T18:51:27.958Z,18.50
2022-08-25T18:54:01.432Z,19.55
2022-08-25T18:56:29.910Z,19.15
2022-08-25T18:58:57.824Z,18.77
2022-08-25T19:01:25.485Z,18.75
2022-08-25T19:03:53.413Z,18.65
2022-08-25T19:06:21.004Z,19.15
2022-08-25T19:08:48.868Z,18.25
2022-08-25T19:11:17.513Z,18.48
2022-08-25T19:13:51.427Z,19.85
2022-08-25T19:16:35.640Z,17.23
2022-08-25T19:19:06.449Z,18.73
2022-08-25T19:21:35.062Z,20.08
2022-08-25T19:24:03.059Z,20.00
2022-08-25T19:26:31.806Z,19.77
2022-08-25T19:28:59.332Z,19.17
2022-08-25T19:31:27.872Z,18.63
2022-08-25T19:34:02.087Z,20.45
2022-08-25T19:36:30.747Z,20.27
2022-08-25T19:39:01.384Z,18.70
2022-08-25T19:41:31.467Z,19.95
2022-08-25T19:44:00.027Z,19.10
2022-08-25T19:46:32.344Z,19.85
2022-08-25T19:49:08.933Z,19.17
2022-08-25T19:51:44.163Z,19.02
2022-08-25T19:54:16.288Z,17.67
2022-08-25T19:56:54.406Z,18.45
2022-08-25T19:59:34.251Z,19.10
2022-08-25T20:02:11.141Z,19.42
2022-08-25T20:04:38.737Z,18.70
2022-08-25T20:07:07.797Z,18.25
2022-08-25T20:09:41.146Z,18.98
2022-08-25T20:12:10.661Z,17.65
2022-08-25T20:14:38.767Z,16.02
2022-08-25T20:17:23.311Z,17.38
2022-08-25T20:19:54.473Z,15.95
2022-08-25T20:22:26.177Z,15.10
2022-08-25T20:25:00.302Z,15.15
2022-08-25T20:27:33.868Z,15.98
2022-08-25T20:30:02.691Z,14.52
2022-08-25T20:32:33.142Z,15.23
2022-08-25T20:35:02.279Z,13.68
2022-08-25T20:37:30.997Z,17.70
2022-08-25T20:39:58.877Z,17.35
2022-08-25T20:42:26.466Z,15.23
2022-08-25T20:44:54.734Z,14.68
2022-08-25T20:47:22.828Z,14.27
2022-08-25T20:49:50.593Z,15.90
2022-08-25T20:52:19.686Z,15.02
2022-08-25T20:54:50.326Z,17.13
2022-08-25T20:57:25.485Z,16.67
2022-08-25T20:59:54.916Z,16.30
2022-08-25T21:02:24.063Z,16.70
2022-08-25T21:04:53.356Z,15.75
2022-08-25T21:07:23.906Z,17.38
2022-08-25T21:09:51.847Z,17.83
2022-08-25T21:12:19.967Z,17.58
2022-08-25T21:14:48.393Z,16.90
2022-08-25T21:17:19.138Z,18.45
2022-08-25T21:22:16.527Z,18.25
2022-08-25T21:24:45.033Z,18.45
2022-08-25T21:27:12.628Z,19.23
2022-08-25T21:29:44.741Z,18.00
2022-08-25T21:32:22.687Z,16.45
2022-08-25T21:34:54.354Z,17.48
2022-08-25T21:37:22.034Z,19.15
2022-08-25T21:39:49.807Z,18.60
2022-08-25T21:42:17.493Z,18.83
2022-08-25T21:44:45.235Z,19.52
2022-08-25T21:47:12.835Z,19.38
2022-08-25T21:49:40.401Z,18.48
2022-08-25T21:52:08.173Z,18.38
2022-08-25T21:54:35.722Z,19.45
2022-08-25T21:57:06.026Z,20.48
2022-08-25T21:59:36.896Z,18.75
2022-08-25T22:02:08.871Z,19.90
2022-08-25T22:04:38.923Z,19.38
2022-08-25T22:07:09.095Z,19.20
2022-08-25T22:09:37.144Z,18.90
2022-08-25T22:12:06.115Z,18.60
2022-08-25T22:14:34.323Z,18.30
2022-08-25T22:17:02.374Z,16.23
2022-08-25T22:19:30.004Z,17.15
2022-08-25T22:22:01.723Z,16.05
2022-08-25T22:24:29.254Z,19.70
2022-08-25T22:26:57.130Z,19.45
2022-08-25T22:29:26.192Z,17.65
2022-08-25T22:32:00.699Z,16.58
2022-08-25T22:34:34.701Z,15.93
2022-08-25T22:37:07.690Z,16.45
2022-08-25T22:39:36.173Z,16.67
2022-08-25T22:42:06.273Z,15.55
2022-08-25T22:44:33.673Z,16.10
2022-08-25T22:47:01.253Z,17.00
2022-08-25T22:49:29.534Z,17.50
2022-08-25T22:51:57.773Z,19.90
2022-08-25T22:54:25.669Z,19.90
2022-08-25T22:56:53.903Z,19.85
2022-08-25T22:59:22.199Z,19.45
2022-08-25T23:01:52.676Z,18.23
2022-08-25T23:04:22.916Z,18.30
2022-08-25T23:06:52.743Z,19.00
2022-08-25T23:09:21.012Z,22.33
2022-08-25T23:12:20.906Z,24.13
2022-08-25T23:14:50.369Z,22.23
2022-08-25T23:17:17.976Z,21.77
2022-08-25T23:19:46.688Z,20.90
2022-08-25T23:22:16.265Z,22.05
2022-08-25T23:24:47.445Z,22.48
2022-08-25T23:27:19.923Z,22.25
2022-08-25T23:29:49.397Z,22.55
2022-08-25T23:32:18.326Z,21.25
2022-08-25T23:34:46.999Z,24.75
2022-08-25T23:37:16.079Z,21.08
2022-08-25T23:39:47.495Z,21.05
2022-08-25T23:42:19.440Z,21.42
2022-08-25T23:44:48.189Z,20.58
2022-08-25T23:47:16.809Z,19.73
2022-08-25T23:49:44.539Z,21.00
2022-08-25T23:52:12.270Z,22.25
2022-08-25T23:54:39.811Z,21.85
2022-08-25T23:57:07.300Z,20.85
2022-08-25T23:59:38.262Z,20.73
